sensor_id;sensor_type;location;lat;lon;timestamp;pressure;altitude;pressure_sealevel;temperature;humidity
27334;BME280;14817;57.104;-2.094;2023-02-21T00:01:39;100340.44;;;7.79;100.00
27334;BME280;14817;57.104;-2.094;2023-02-21T00:04:24;100339.03;;;7.75;100.00
27334;BME280;14817;57.104;-2.094;2023-02-21T00:07:09;100344.34;;;7.75;100.00
27334;BME280;14817;57.104;-2.094;2023-02-21T00:09:55;100346.31;;;7.73;100.00
27334;BME280;14817;57.104;-2.094;2023-02-21T00:12:40;100342.81;;;7.72;100.00
27334;BME280;14817;57.104;-2.094;2023-02-21T00:15:25;100344.78;;;7.70;100.00
27334;BME280;14817;57.104;-2.094;2023-02-21T00:18:10;100351.34;;;7.66;100.00
27334;BME280;14817;57.104;-2.094;2023-02-21T00:20:56;100348.13;;;7.63;100.00
27334;BME280;14817;57.104;-2.094;2023-02-21T00:23:41;100345.44;;;7.63;100.00
27334;BME280;14817;57.104;-2.094;2023-02-21T00:26:27;100351.91;;;7.60;100.00
27334;BME280;14817;57.104;-2.094;2023-02-21T00:29:13;100352.88;;;7.59;100.00
27334;BME280;14817;57.104;-2.094;2023-02-21T00:31:58;100342.06;;;7.61;100.00
27334;BME280;14817;57.104;-2.094;2023-02-21T00:34:43;100340.41;;;7.60;100.00
27334;BME280;14817;57.104;-2.094;2023-02-21T00:37:28;100340.13;;;7.63;100.00
27334;BME280;14817;57.104;-2.094;2023-02-21T00:40:15;100342.50;;;7.66;100.00
27334;BME280;14817;57.104;-2.094;2023-02-21T00:43:00;100340.53;;;7.68;100.00
27334;BME280;14817;57.104;-2.094;2023-02-21T00:45:46;100344.06;;;7.78;100.00
27334;BME280;14817;57.104;-2.094;2023-02-21T00:48:32;100340.41;;;7.69;100.00
27334;BME280;14817;57.104;-2.094;2023-02-21T00:51:18;100327.75;;;7.62;100.00
27334;BME280;14817;57.104;-2.094;2023-02-21T00:54:03;100327.34;;;7.56;100.00
27334;BME280;14817;57.104;-2.094;2023-02-21T00:56:48;100330.00;;;7.56;100.00
27334;BME280;14817;57.104;-2.094;2023-02-21T00:59:33;100333.38;;;7.59;100.00
27334;BME280;14817;57.104;-2.094;2023-02-21T01:02:19;100323.41;;;7.61;100.00
27334;BME280;14817;57.104;-2.094;2023-02-21T01:05:05;100323.41;;;7.61;100.00
27334;BME280;14817;57.104;-2.094;2023-02-21T01:07:50;100319.34;;;7.56;100.00
27334;BME280;14817;57.104;-2.094;2023-02-21T01:10:39;100318.38;;;7.57;100.00
27334;BME280;14817;57.104;-2.094;2023-02-21T01:13:25;100314.84;;;7.57;100.00
27334;BME280;14817;57.104;-2.094;2023-02-21T01:16:10;100313.31;;;7.54;100.00
27334;BME280;14817;57.104;-2.094;2023-02-21T01:18:56;100310.78;;;7.53;100.00
27334;BME280;14817;57.104;-2.094;2023-02-21T01:21:41;100305.59;;;7.51;100.00
27334;BME280;14817;57.104;-2.094;2023-02-21T01:24:26;100300.28;;;7.51;100.00
27334;BME280;14817;57.104;-2.094;2023-02-21T01:27:12;100296.91;;;7.49;100.00
27334;BME280;14817;57.104;-2.094;2023-02-21T01:29:57;100301.94;;;7.52;100.00
27334;BME280;14817;57.104;-2.094;2023-02-21T01:32:42;100299.69;;;7.48;100.00
27334;BME280;14817;57.104;-2.094;2023-02-21T01:35:27;100287.22;;;7.48;100.00
27334;BME280;14817;57.104;-2.094;2023-02-21T01:38:13;100296.91;;;7.49;100.00
27334;BME280;14817;57.104;-2.094;2023-02-21T01:40:58;100299.16;;;7.54;100.00
27334;BME280;14817;57.104;-2.094;2023-02-21T01:44:01;100295.94;;;7.60;100.00
27334;BME280;14817;57.104;-2.094;2023-02-21T01:46:47;100293.94;;;7.52;100.00
27334;BME280;14817;57.104;-2.094;2023-02-21T01:49:34;100287.66;;;7.53;100.00
27334;BME280;14817;57.104;-2.094;2023-02-21T01:52:21;100287.66;;;7.53;100.00
27334;BME280;14817;57.104;-2.094;2023-02-21T01:55:06;100284.53;;;7.48;100.00
27334;BME280;14817;57.104;-2.094;2023-02-21T01:57:53;100281.34;;;7.45;100.00
27334;BME280;14817;57.104;-2.094;2023-02-21T02:00:40;100285.97;;;7.43;100.00
27334;BME280;14817;57.104;-2.094;2023-02-21T02:03:26;100286.50;;;7.46;100.00
27334;BME280;14817;57.104;-2.094;2023-02-21T02:06:13;100285.00;;;7.53;100.00
27334;BME280;14817;57.104;-2.094;2023-02-21T02:09:20;100289.31;;;7.54;100.00
27334;BME280;14817;57.104;-2.094;2023-02-21T02:15:33;100315.81;;;7.36;100.00
27334;BME280;14817;57.104;-2.094;2023-02-21T02:29:38;100304.09;;;7.08;100.00
27334;BME280;14817;57.104;-2.094;2023-02-21T02:35:33;100306.59;;;7.00;100.00
27334;BME280;14817;57.104;-2.094;2023-02-21T02:43:54;100296.88;;;6.89;100.00
27334;BME280;14817;57.104;-2.094;2023-02-21T02:46:29;100297.25;;;6.85;100.00
27334;BME280;14817;57.104;-2.094;2023-02-21T02:49:11;100296.97;;;6.78;100.00
27334;BME280;14817;57.104;-2.094;2023-02-21T02:51:40;100291.50;;;6.80;100.00
27334;BME280;14817;57.104;-2.094;2023-02-21T02:54:08;100280.47;;;6.84;100.00
27334;BME280;14817;57.104;-2.094;2023-02-21T02:56:35;100282.72;;;6.89;100.00
27334;BME280;14817;57.104;-2.094;2023-02-21T02:59:35;100286.09;;;6.91;100.00
27334;BME280;14817;57.104;-2.094;2023-02-21T03:05:01;100284.06;;;6.73;100.00
27334;BME280;14817;57.104;-2.094;2023-02-21T03:08:14;100273.41;;;6.73;100.00
27334;BME280;14817;57.104;-2.094;2023-02-21T03:10:47;100271.75;;;6.72;100.00
27334;BME280;14817;57.104;-2.094;2023-02-21T03:18:45;100279.03;;;6.70;100.00
27334;BME280;14817;57.104;-2.094;2023-02-21T03:21:27;100280.13;;;6.68;100.00
27334;BME280;14817;57.104;-2.094;2023-02-21T03:23:57;100278.75;;;6.73;100.00
27334;BME280;14817;57.104;-2.094;2023-02-21T03:26:30;100275.13;;;6.74;100.00
27334;BME280;14817;57.104;-2.094;2023-02-21T03:29:09;100268.41;;;6.80;100.00
27334;BME280;14817;57.104;-2.094;2023-02-21T03:31:42;100268.41;;;6.80;100.00
27334;BME280;14817;57.104;-2.094;2023-02-21T03:34:10;100276.25;;;6.82;100.00
27334;BME280;14817;57.104;-2.094;2023-02-21T03:36:37;100269.69;;;6.86;100.00
27334;BME280;14817;57.104;-2.094;2023-02-21T03:39:04;100264.25;;;6.87;100.00
27334;BME280;14817;57.104;-2.094;2023-02-21T03:41:32;100265.91;;;6.88;100.00
27334;BME280;14817;57.104;-2.094;2023-02-21T03:43:58;100272.94;;;6.89;100.00
27334;BME280;14817;57.104;-2.094;2023-02-21T03:46:26;100275.72;;;6.88;100.00
27334;BME280;14817;57.104;-2.094;2023-02-21T03:48:52;100268.56;;;6.88;100.00
27334;BME280;14817;57.104;-2.094;2023-02-21T03:51:25;100267.59;;;6.89;100.00
27334;BME280;14817;57.104;-2.094;2023-02-21T03:53:52;100264.09;;;6.89;100.00
27334;BME280;14817;57.104;-2.094;2023-02-21T03:56:22;100256.97;;;6.89;100.00
27334;BME280;14817;57.104;-2.094;2023-02-21T03:59:14;100259.03;;;6.86;100.00
27334;BME280;14817;57.104;-2.094;2023-02-21T04:01:42;100251.31;;;6.83;100.00
27334;BME280;14817;57.104;-2.094;2023-02-21T04:04:09;100254.97;;;6.82;100.00
27334;BME280;14817;57.104;-2.094;2023-02-21T04:06:36;100252.44;;;6.80;100.00
27334;BME280;14817;57.104;-2.094;2023-02-21T04:09:03;100242.66;;;6.81;100.00
27334;BME280;14817;57.104;-2.094;2023-02-21T04:11:30;100237.03;;;6.84;100.00
27334;BME280;14817;57.104;-2.094;2023-02-21T04:13:58;100238.72;;;6.85;100.00
27334;BME280;14817;57.104;-2.094;2023-02-21T04:16:24;100235.34;;;6.83;100.00
27334;BME280;14817;57.104;-2.094;2023-02-21T04:18:52;100243.47;;;6.81;100.00
27334;BME280;14817;57.104;-2.094;2023-02-21T04:21:19;100225.25;;;6.77;100.00
27334;BME280;14817;57.104;-2.094;2023-02-21T04:23:48;100239.28;;;6.79;100.00
27334;BME280;14817;57.104;-2.094;2023-02-21T04:26:15;100219.06;;;6.76;100.00
27334;BME280;14817;57.104;-2.094;2023-02-21T04:28:49;100223.31;;;6.79;100.00
27334;BME280;14817;57.104;-2.094;2023-02-21T04:31:16;100224.13;;;6.79;100.00
27334;BME280;14817;57.104;-2.094;2023-02-21T04:33:44;100219.94;;;6.77;100.00
27334;BME280;14817;57.104;-2.094;2023-02-21T04:36:15;100216.56;;;6.74;100.00
27334;BME280;14817;57.104;-2.094;2023-02-21T04:38:43;100214.88;;;6.73;100.00
27334;BME280;14817;57.104;-2.094;2023-02-21T04:41:10;100204.09;;;6.75;100.00
27334;BME280;14817;57.104;-2.094;2023-02-21T04:43:41;100196.13;;;6.75;100.00
27334;BME280;14817;57.104;-2.094;2023-02-21T04:46:09;100209.53;;;6.73;100.00
27334;BME280;14817;57.104;-2.094;2023-02-21T04:48:36;100217.41;;;6.75;100.00
27334;BME280;14817;57.104;-2.094;2023-02-21T04:51:03;100220.19;;;6.73;100.00
27334;BME280;14817;57.104;-2.094;2023-02-21T04:53:42;100218.53;;;6.72;100.00
27334;BME280;14817;57.104;-2.094;2023-02-21T04:56:09;100223.13;;;6.70;100.00
27334;BME280;14817;57.104;-2.094;2023-02-21T04:58:38;100221.59;;;6.68;100.00
27334;BME280;14817;57.104;-2.094;2023-02-21T05:01:11;100232.06;;;6.69;100.00
27334;BME280;14817;57.104;-2.094;2023-02-21T05:03:39;100227.75;;;6.68;100.00
27334;BME280;14817;57.104;-2.094;2023-02-21T05:06:06;100223.38;;;6.67;100.00
27334;BME280;14817;57.104;-2.094;2023-02-21T05:08:32;100221.72;;;6.66;100.00
27334;BME280;14817;57.104;-2.094;2023-02-21T05:11:00;100212.75;;;6.67;100.00
27334;BME280;14817;57.104;-2.094;2023-02-21T05:13:27;100201.38;;;6.65;100.00
27334;BME280;14817;57.104;-2.094;2023-02-21T05:15:54;100195.53;;;6.71;100.00
27334;BME280;14817;57.104;-2.094;2023-02-21T05:18:21;100191.31;;;6.69;100.00
27334;BME280;14817;57.104;-2.094;2023-02-21T05:20:54;100179.56;;;6.71;100.00
27334;BME280;14817;57.104;-2.094;2023-02-21T05:23:21;100182.75;;;6.65;100.00
27334;BME280;14817;57.104;-2.094;2023-02-21T05:28:32;100180.38;;;6.62;100.00
27334;BME280;14817;57.104;-2.094;2023-02-21T05:30:59;100181.22;;;6.63;100.00
27334;BME280;14817;57.104;-2.094;2023-02-21T05:33:27;100176.72;;;6.63;100.00
27334;BME280;14817;57.104;-2.094;2023-02-21T05:35:54;100173.13;;;6.64;100.00
27334;BME280;14817;57.104;-2.094;2023-02-21T05:38:23;100178.31;;;6.66;100.00
27334;BME280;14817;57.104;-2.094;2023-02-21T05:40:51;100180.97;;;6.66;100.00
27334;BME280;14817;57.104;-2.094;2023-02-21T05:43:18;100178.16;;;6.67;100.00
27334;BME280;14817;57.104;-2.094;2023-02-21T05:45:45;100177.31;;;6.67;100.00
27334;BME280;14817;57.104;-2.094;2023-02-21T05:48:12;100173.81;;;6.66;100.00
27334;BME280;14817;57.104;-2.094;2023-02-21T05:50:38;100170.31;;;6.66;100.00
27334;BME280;14817;57.104;-2.094;2023-02-21T05:53:05;100168.50;;;6.66;100.00
27334;BME280;14817;57.104;-2.094;2023-02-21T05:55:32;100171.41;;;6.63;100.00
27334;BME280;14817;57.104;-2.094;2023-02-21T05:57:59;100167.91;;;6.63;100.00
27334;BME280;14817;57.104;-2.094;2023-02-21T06:00:28;100171.00;;;6.58;100.00
27334;BME280;14817;57.104;-2.094;2023-02-21T06:02:55;100176.31;;;6.58;100.00
27334;BME280;14817;57.104;-2.094;2023-02-21T06:05:23;100180.94;;;6.56;100.00
27334;BME280;14817;57.104;-2.094;2023-02-21T06:07:50;100175.88;;;6.53;100.00
27334;BME280;14817;57.104;-2.094;2023-02-21T06:10:17;100171.94;;;6.57;100.00
27334;BME280;14817;57.104;-2.094;2023-02-21T06:12:44;100169.16;;;6.59;100.00
27334;BME280;14817;57.104;-2.094;2023-02-21T06:15:11;100162.72;;;6.61;100.00
27334;BME280;14817;57.104;-2.094;2023-02-21T06:17:39;100156.16;;;6.65;100.00
27334;BME280;14817;57.104;-2.094;2023-02-21T06:20:07;100146.50;;;6.64;100.00
27334;BME280;14817;57.104;-2.094;2023-02-21T06:22:36;100143.44;;;6.69;100.00
27334;BME280;14817;57.104;-2.094;2023-02-21T06:25:03;100137.00;;;6.71;100.00
27334;BME280;14817;57.104;-2.094;2023-02-21T06:27:30;100138.53;;;6.74;100.00
27334;BME280;14817;57.104;-2.094;2023-02-21T06:29:56;100138.44;;;6.85;100.00
27334;BME280;14817;57.104;-2.094;2023-02-21T06:32:23;100126.38;;;6.91;100.00
27334;BME280;14817;57.104;-2.094;2023-02-21T06:34:50;100132.41;;;6.93;100.00
27334;BME280;14817;57.104;-2.094;2023-02-21T06:37:17;100140.13;;;6.96;100.00
27334;BME280;14817;57.104;-2.094;2023-02-21T06:39:44;100131.13;;;6.97;100.00
27334;BME280;14817;57.104;-2.094;2023-02-21T06:42:12;100132.13;;;6.96;100.00
27334;BME280;14817;57.104;-2.094;2023-02-21T06:44:44;100123.03;;;6.99;100.00
27334;BME280;14817;57.104;-2.094;2023-02-21T06:47:11;100118.97;;;7.04;100.00
27334;BME280;14817;57.104;-2.094;2023-02-21T06:49:38;100110.69;;;7.07;100.00
27334;BME280;14817;57.104;-2.094;2023-02-21T06:52:05;100110.81;;;7.06;100.00
27334;BME280;14817;57.104;-2.094;2023-02-21T06:54:32;100114.75;;;7.11;100.00
27334;BME280;14817;57.104;-2.094;2023-02-21T06:56:59;100122.19;;;7.18;100.00
27334;BME280;14817;57.104;-2.094;2023-02-21T06:59:27;100124.97;;;7.16;100.00
27334;BME280;14817;57.104;-2.094;2023-02-21T07:01:55;100126.53;;;7.19;100.00
27334;BME280;14817;57.104;-2.094;2023-02-21T07:04:23;100122.44;;;7.14;100.00
27334;BME280;14817;57.104;-2.094;2023-02-21T07:06:51;100119.94;;;7.13;100.00
27334;BME280;14817;57.104;-2.094;2023-02-21T07:09:17;100115.47;;;7.13;100.00
27334;BME280;14817;57.104;-2.094;2023-02-21T07:11:44;100126.13;;;7.13;100.00
27334;BME280;14817;57.104;-2.094;2023-02-21T07:14:12;100124.41;;;7.12;100.00
27334;BME280;14817;57.104;-2.094;2023-02-21T07:16:39;100130.31;;;7.16;100.00
27334;BME280;14817;57.104;-2.094;2023-02-21T07:19:06;100121.50;;;7.15;100.00
27334;BME280;14817;57.104;-2.094;2023-02-21T07:21:33;100118.53;;;7.19;100.00
27334;BME280;14817;57.104;-2.094;2023-02-21T07:23:59;100107.88;;;7.19;100.00
27334;BME280;14817;57.104;-2.094;2023-02-21T07:26:26;100117.44;;;7.21;100.00
27334;BME280;14817;57.104;-2.094;2023-02-21T07:28:53;100112.94;;;7.22;100.00
27334;BME280;14817;57.104;-2.094;2023-02-21T07:31:20;100111.25;;;7.21;100.00
27334;BME280;14817;57.104;-2.094;2023-02-21T07:33:47;100103.69;;;7.26;100.00
27334;BME280;14817;57.104;-2.094;2023-02-21T07:36:14;100104.78;;;7.33;100.00
27334;BME280;14817;57.104;-2.094;2023-02-21T07:38:41;100106.75;;;7.41;100.00
27334;BME280;14817;57.104;-2.094;2023-02-21T07:41:07;100102.66;;;7.46;100.00
27334;BME280;14817;57.104;-2.094;2023-02-21T07:43:34;100095.81;;;7.53;100.00
27334;BME280;14817;57.104;-2.094;2023-02-21T07:46:01;100093.66;;;7.57;100.00
27334;BME280;14817;57.104;-2.094;2023-02-21T07:48:28;100090.28;;;7.65;100.00
27334;BME280;14817;57.104;-2.094;2023-02-21T07:50:55;100101.91;;;7.73;100.00
27334;BME280;14817;57.104;-2.094;2023-02-21T07:53:22;100100.50;;;7.79;100.00
27334;BME280;14817;57.104;-2.094;2023-02-21T07:55:48;100089.38;;;8.21;100.00
27334;BME280;14817;57.104;-2.094;2023-02-21T07:58:15;100097.84;;;8.72;100.00
27334;BME280;14817;57.104;-2.094;2023-02-21T08:00:42;100092.69;;;8.33;100.00
27334;BME280;14817;57.104;-2.094;2023-02-21T08:03:11;100099.28;;;8.38;100.00
27334;BME280;14817;57.104;-2.094;2023-02-21T08:05:39;100098.19;;;8.59;100.00
27334;BME280;14817;57.104;-2.094;2023-02-21T08:08:07;100102.09;;;8.65;100.00
27334;BME280;14817;57.104;-2.094;2023-02-21T08:10:34;100096.91;;;8.63;100.00
27334;BME280;14817;57.104;-2.094;2023-02-21T08:13:01;100095.03;;;8.73;100.00
27334;BME280;14817;57.104;-2.094;2023-02-21T08:15:28;100097.00;;;8.71;100.00
27334;BME280;14817;57.104;-2.094;2023-02-21T08:17:55;100103.19;;;8.72;100.00
27334;BME280;14817;57.104;-2.094;2023-02-21T08:20:21;100099.84;;;8.88;100.00
27334;BME280;14817;57.104;-2.094;2023-02-21T08:22:48;100107.00;;;8.87;100.00
27334;BME280;14817;57.104;-2.094;2023-02-21T08:25:15;100114.25;;;8.95;100.00
27334;BME280;14817;57.104;-2.094;2023-02-21T08:27:43;100104.72;;;8.92;100.00
27334;BME280;14817;57.104;-2.094;2023-02-21T08:30:12;100092.13;;;8.85;100.00
27334;BME280;14817;57.104;-2.094;2023-02-21T08:32:40;100101.75;;;8.77;100.00
27334;BME280;14817;57.104;-2.094;2023-02-21T08:35:07;100096.72;;;8.92;100.00
27334;BME280;14817;57.104;-2.094;2023-02-21T08:37:34;100099.38;;;9.10;100.00
27334;BME280;14817;57.104;-2.094;2023-02-21T08:40:03;100098.59;;;9.00;100.00
27334;BME280;14817;57.104;-2.094;2023-02-21T08:42:30;100097.38;;;9.12;100.00
27334;BME280;14817;57.104;-2.094;2023-02-21T08:44:56;100112.28;;;9.33;100.00
27334;BME280;14817;57.104;-2.094;2023-02-21T08:47:23;100107.34;;;9.46;100.00
27334;BME280;14817;57.104;-2.094;2023-02-21T08:49:50;100105.31;;;9.40;100.00
27334;BME280;14817;57.104;-2.094;2023-02-21T08:52:18;100108.03;;;9.48;100.00
27334;BME280;14817;57.104;-2.094;2023-02-21T08:54:46;100104.06;;;9.52;100.00
27334;BME280;14817;57.104;-2.094;2023-02-21T08:57:13;100096.59;;;9.56;100.00
27334;BME280;14817;57.104;-2.094;2023-02-21T08:59:41;100093.63;;;9.93;100.00
27334;BME280;14817;57.104;-2.094;2023-02-21T09:02:17;100103.22;;;10.38;100.00
27334;BME280;14817;57.104;-2.094;2023-02-21T09:04:44;100098.88;;;10.88;100.00
27334;BME280;14817;57.104;-2.094;2023-02-21T09:07:16;100091.84;;;11.36;100.00
27334;BME280;14817;57.104;-2.094;2023-02-21T09:09:43;100087.97;;;11.63;100.00
27334;BME280;14817;57.104;-2.094;2023-02-21T09:12:10;100087.66;;;11.17;100.00
27334;BME280;14817;57.104;-2.094;2023-02-21T09:14:39;100081.13;;;11.28;100.00
27334;BME280;14817;57.104;-2.094;2023-02-21T09:17:11;100089.19;;;11.12;100.00
27334;BME280;14817;57.104;-2.094;2023-02-21T09:19:38;100082.47;;;11.08;100.00
27334;BME280;14817;57.104;-2.094;2023-02-21T09:22:07;100092.00;;;11.10;100.00
27334;BME280;14817;57.104;-2.094;2023-02-21T09:24:34;100080.09;;;11.54;100.00
27334;BME280;14817;57.104;-2.094;2023-02-21T09:27:01;100094.31;;;11.71;100.00
27334;BME280;14817;57.104;-2.094;2023-02-21T09:29:33;100087.16;;;11.63;100.00
27334;BME280;14817;57.104;-2.094;2023-02-21T09:32:12;100085.28;;;11.63;100.00
27334;BME280;14817;57.104;-2.094;2023-02-21T09:34:39;100092.00;;;11.68;100.00
27334;BME280;14817;57.104;-2.094;2023-02-21T09:37:06;100089.63;;;11.56;100.00
27334;BME280;14817;57.104;-2.094;2023-02-21T09:39:36;100090.00;;;11.53;100.00
27334;BME280;14817;57.104;-2.094;2023-02-21T09:42:03;100081.59;;;11.56;100.00
27334;BME280;14817;57.104;-2.094;2023-02-21T09:44:30;100084.16;;;12.14;100.00
27334;BME280;14817;57.104;-2.094;2023-02-21T09:46:59;100082.06;;;12.95;100.00
27334;BME280;14817;57.104;-2.094;2023-02-21T09:49:39;100084.22;;;13.22;100.00
27334;BME280;14817;57.104;-2.094;2023-02-21T09:52:30;100087.31;;;13.57;100.00
27334;BME280;14817;57.104;-2.094;2023-02-21T09:55:01;100073.13;;;14.08;100.00
27334;BME280;14817;57.104;-2.094;2023-02-21T09:57:28;100069.78;;;14.21;100.00
27334;BME280;14817;57.104;-2.094;2023-02-21T09:59:55;100075.09;;;13.99;100.00
27334;BME280;14817;57.104;-2.094;2023-02-21T10:07:48;100071.47;;;13.62;100.00
27334;BME280;14817;57.104;-2.094;2023-02-21T10:10:39;100076.81;;;13.24;100.00
27334;BME280;14817;57.104;-2.094;2023-02-21T10:16:05;100073.44;;;12.84;100.00
27334;BME280;14817;57.104;-2.094;2023-02-21T10:18:45;100065.13;;;12.94;100.00
27334;BME280;14817;57.104;-2.094;2023-02-21T10:21:31;100071.91;;;13.05;100.00
27334;BME280;14817;57.104;-2.094;2023-02-21T10:24:04;100070.00;;;13.14;100.00
27334;BME280;14817;57.104;-2.094;2023-02-21T10:26:37;100070.66;;;13.16;100.00
27334;BME280;14817;57.104;-2.094;2023-02-21T10:29:26;100062.63;;;13.54;100.00
27334;BME280;14817;57.104;-2.094;2023-02-21T10:31:59;100061.88;;;13.45;100.00
27334;BME280;14817;57.104;-2.094;2023-02-21T10:34:30;100059.41;;;12.97;100.00
27334;BME280;14817;57.104;-2.094;2023-02-21T10:37:03;100062.53;;;12.55;100.00
27334;BME280;14817;57.104;-2.094;2023-02-21T10:39:40;100067.81;;;12.40;100.00
27334;BME280;14817;57.104;-2.094;2023-02-21T10:42:16;100064.78;;;11.95;100.00
27334;BME280;14817;57.104;-2.094;2023-02-21T10:44:48;100063.63;;;11.81;100.00
27334;BME280;14817;57.104;-2.094;2023-02-21T10:47:22;100066.50;;;11.80;100.00
27334;BME280;14817;57.104;-2.094;2023-02-21T10:49:59;100049.22;;;11.74;100.00
27334;BME280;14817;57.104;-2.094;2023-02-21T10:52:26;100051.09;;;11.57;100.00
27334;BME280;14817;57.104;-2.094;2023-02-21T10:57:31;100054.09;;;11.62;100.00
27334;BME280;14817;57.104;-2.094;2023-02-21T11:00:00;100048.06;;;11.69;100.00
27334;BME280;14817;57.104;-2.094;2023-02-21T11:02:39;100043.50;;;11.94;100.00
27334;BME280;14817;57.104;-2.094;2023-02-21T11:05:11;100037.28;;;11.93;100.00
27334;BME280;14817;57.104;-2.094;2023-02-21T11:07:38;100037.31;;;11.69;100.00
27334;BME280;14817;57.104;-2.094;2023-02-21T11:10:27;100033.41;;;11.88;100.00
27334;BME280;14817;57.104;-2.094;2023-02-21T11:15:29;100032.03;;;12.08;100.00
27334;BME280;14817;57.104;-2.094;2023-02-21T11:18:10;100032.84;;;12.17;100.00
27334;BME280;14817;57.104;-2.094;2023-02-21T11:20:38;100026.81;;;12.15;100.00
27334;BME280;14817;57.104;-2.094;2023-02-21T11:23:26;100027.38;;;11.94;100.00
27334;BME280;14817;57.104;-2.094;2023-02-21T11:25:59;100026.56;;;11.93;100.00
27334;BME280;14817;57.104;-2.094;2023-02-21T11:28:36;100023.66;;;12.03;100.00
27334;BME280;14817;57.104;-2.094;2023-02-21T11:31:26;100013.47;;;11.90;100.00
27334;BME280;14817;57.104;-2.094;2023-02-21T11:34:00;100016.34;;;11.89;100.00
27334;BME280;14817;57.104;-2.094;2023-02-21T11:36:29;100007.66;;;12.18;100.00
27334;BME280;14817;57.104;-2.094;2023-02-21T11:39:16;100000.00;;;12.38;100.00
27334;BME280;14817;57.104;-2.094;2023-02-21T11:41:55;99996.13;;;12.40;100.00
27334;BME280;14817;57.104;-2.094;2023-02-21T11:44:39;99987.81;;;12.27;100.00
27334;BME280;14817;57.104;-2.094;2023-02-21T11:50:26;99988.66;;;12.74;100.00
27334;BME280;14817;57.104;-2.094;2023-02-21T11:55:25;99979.44;;;12.22;100.00
27334;BME280;14817;57.104;-2.094;2023-02-21T12:00:28;99978.66;;;11.74;100.00
27334;BME280;14817;57.104;-2.094;2023-02-21T12:03:05;99988.50;;;11.81;100.00
27334;BME280;14817;57.104;-2.094;2023-02-21T12:11:52;99977.88;;;11.49;100.00
27334;BME280;14817;57.104;-2.094;2023-02-21T12:14:37;99972.13;;;11.60;100.00
27334;BME280;14817;57.104;-2.094;2023-02-21T12:17:39;99965.53;;;11.31;100.00
27334;BME280;14817;57.104;-2.094;2023-02-21T12:26:04;99945.69;;;11.57;100.00
27334;BME280;14817;57.104;-2.094;2023-02-21T12:36:56;99949.22;;;11.49;100.00
27334;BME280;14817;57.104;-2.094;2023-02-21T12:50:24;99937.38;;;11.35;100.00
27334;BME280;14817;57.104;-2.094;2023-02-21T12:53:02;99931.66;;;11.38;100.00
27334;BME280;14817;57.104;-2.094;2023-02-21T12:55:36;99942.63;;;11.04;100.00
27334;BME280;14817;57.104;-2.094;2023-02-21T12:58:23;99933.25;;;10.92;100.00
27334;BME280;14817;57.104;-2.094;2023-02-21T13:00:56;99937.78;;;10.83;100.00
27334;BME280;14817;57.104;-2.094;2023-02-21T13:06:31;99937.09;;;10.97;100.00
27334;BME280;14817;57.104;-2.094;2023-02-21T13:14:18;99928.56;;;10.94;100.00
27334;BME280;14817;57.104;-2.094;2023-02-21T13:16:47;99925.22;;;10.83;100.00
27334;BME280;14817;57.104;-2.094;2023-02-21T13:19:14;99915.16;;;10.86;100.00
27334;BME280;14817;57.104;-2.094;2023-02-21T13:33:01;99903.16;;;10.73;100.00
27334;BME280;14817;57.104;-2.094;2023-02-21T13:35:32;99891.06;;;10.77;100.00
27334;BME280;14817;57.104;-2.094;2023-02-21T13:38:00;99881.88;;;10.72;100.00
27334;BME280;14817;57.104;-2.094;2023-02-21T13:40:37;99877.38;;;10.64;100.00
27334;BME280;14817;57.104;-2.094;2023-02-21T13:43:11;99870.66;;;10.68;100.00
27334;BME280;14817;57.104;-2.094;2023-02-21T13:45:39;99870.50;;;10.53;100.00
27334;BME280;14817;57.104;-2.094;2023-02-21T14:03:39;99859.25;;;10.99;100.00
27334;BME280;14817;57.104;-2.094;2023-02-21T14:08:41;99854.22;;;10.96;100.00
27334;BME280;14817;57.104;-2.094;2023-02-21T14:13:53;99857.22;;;11.01;100.00
27334;BME280;14817;57.104;-2.094;2023-02-21T14:16:36;99858.03;;;11.10;100.00
27334;BME280;14817;57.104;-2.094;2023-02-21T14:19:31;99855.25;;;10.87;100.00
27334;BME280;14817;57.104;-2.094;2023-02-21T14:22:09;99852.41;;;10.80;100.00
27334;BME280;14817;57.104;-2.094;2023-02-21T14:24:41;99851.38;;;10.89;100.00
27334;BME280;14817;57.104;-2.094;2023-02-21T14:29:41;99849.41;;;11.31;100.00
27334;BME280;14817;57.104;-2.094;2023-02-21T14:37:39;99844.88;;;11.39;100.00
27334;BME280;14817;57.104;-2.094;2023-02-21T14:40:25;99831.63;;;11.38;100.00
27334;BME280;14817;57.104;-2.094;2023-02-21T14:54:20;99807.25;;;11.16;100.00
27334;BME280;14817;57.104;-2.094;2023-02-21T15:05:03;99791.72;;;11.12;100.00
27334;BME280;14817;57.104;-2.094;2023-02-21T15:10:31;99805.31;;;11.02;100.00
27334;BME280;14817;57.104;-2.094;2023-02-21T15:13:00;99794.44;;;10.95;100.00
27334;BME280;14817;57.104;-2.094;2023-02-21T15:15:32;99798.13;;;10.94;100.00
27334;BME280;14817;57.104;-2.094;2023-02-21T15:18:10;99792.28;;;10.91;100.00
27334;BME280;14817;57.104;-2.094;2023-02-21T15:20:41;99787.34;;;10.63;100.00
27334;BME280;14817;57.104;-2.094;2023-02-21T15:25:35;99793.00;;;10.76;100.00
27334;BME280;14817;57.104;-2.094;2023-02-21T15:28:05;99788.69;;;10.59;100.00
27334;BME280;14817;57.104;-2.094;2023-02-21T15:30:40;99780.00;;;10.57;100.00
27334;BME280;14817;57.104;-2.094;2023-02-21T15:33:14;99775.31;;;10.51;100.00
27334;BME280;14817;57.104;-2.094;2023-02-21T15:35:52;99778.00;;;10.51;100.00
27334;BME280;14817;57.104;-2.094;2023-02-21T15:41:14;99794.56;;;10.30;100.00
27334;BME280;14817;57.104;-2.094;2023-02-21T15:46:33;99778.34;;;10.23;100.00
27334;BME280;14817;57.104;-2.094;2023-02-21T15:49:03;99773.81;;;10.23;100.00
27334;BME280;14817;57.104;-2.094;2023-02-21T15:51:31;99769.31;;;10.16;100.00
27334;BME280;14817;57.104;-2.094;2023-02-21T15:59:35;99755.94;;;9.99;100.00
27334;BME280;14817;57.104;-2.094;2023-02-21T16:04:36;99753.78;;;9.95;100.00